sensor_id;sensor_type;location;lat;lon;timestamp;P1;durP1;ratioP1;P2;durP2;ratioP2
33814;SDS011;20121;51.910;8.406;2023-02-17T00:00:28;6.37;;;4.93;;
33814;SDS011;20121;51.910;8.406;2023-02-17T00:02:57;7.73;;;5.77;;
33814;SDS011;20121;51.910;8.406;2023-02-17T00:05:23;11.85;;;5.55;;
33814;SDS011;20121;51.910;8.406;2023-02-17T00:07:50;10.35;;;6.75;;
33814;SDS011;20121;51.910;8.406;2023-02-17T00:10:16;6.73;;;4.70;;
33814;SDS011;20121;51.910;8.406;2023-02-17T00:12:41;7.97;;;5.00;;
33814;SDS011;20121;51.910;8.406;2023-02-17T00:15:07;9.70;;;5.13;;
33814;SDS011;20121;51.910;8.406;2023-02-17T00:17:33;11.23;;;7.22;;
33814;SDS011;20121;51.910;8.406;2023-02-17T00:19:59;8.20;;;4.60;;
33814;SDS011;20121;51.910;8.406;2023-02-17T00:22:24;7.60;;;5.70;;
33814;SDS011;20121;51.910;8.406;2023-02-17T00:24:50;7.70;;;5.40;;
33814;SDS011;20121;51.910;8.406;2023-02-17T00:27:16;6.87;;;4.80;;
33814;SDS011;20121;51.910;8.406;2023-02-17T00:29:43;9.35;;;5.65;;
33814;SDS011;20121;51.910;8.406;2023-02-17T00:32:09;9.90;;;5.10;;
33814;SDS011;20121;51.910;8.406;2023-02-17T00:34:35;6.70;;;5.60;;
33814;SDS011;20121;51.910;8.406;2023-02-17T00:37:01;13.20;;;4.93;;
33814;SDS011;20121;51.910;8.406;2023-02-17T00:39:27;4.67;;;4.27;;
33814;SDS011;20121;51.910;8.406;2023-02-17T00:41:53;8.53;;;6.90;;
33814;SDS011;20121;51.910;8.406;2023-02-17T00:44:22;10.10;;;5.73;;
33814;SDS011;20121;51.910;8.406;2023-02-17T00:46:49;5.90;;;3.95;;
33814;SDS011;20121;51.910;8.406;2023-02-17T00:49:16;9.13;;;6.50;;
33814;SDS011;20121;51.910;8.406;2023-02-17T00:51:43;4.82;;;4.43;;
33814;SDS011;20121;51.910;8.406;2023-02-17T00:54:10;11.32;;;5.55;;
33814;SDS011;20121;51.910;8.406;2023-02-17T00:56:36;7.18;;;5.13;;
33814;SDS011;20121;51.910;8.406;2023-02-17T00:59:02;11.48;;;6.57;;
33814;SDS011;20121;51.910;8.406;2023-02-17T01:01:27;7.50;;;5.97;;
33814;SDS011;20121;51.910;8.406;2023-02-17T01:03:54;9.70;;;6.55;;
33814;SDS011;20121;51.910;8.406;2023-02-17T01:06:23;7.90;;;5.70;;
33814;SDS011;20121;51.910;8.406;2023-02-17T01:08:54;9.20;;;5.90;;
33814;SDS011;20121;51.910;8.406;2023-02-17T01:11:21;6.67;;;5.70;;
33814;SDS011;20121;51.910;8.406;2023-02-17T01:13:50;10.40;;;6.78;;
33814;SDS011;20121;51.910;8.406;2023-02-17T01:16:21;10.70;;;7.00;;
33814;SDS011;20121;51.910;8.406;2023-02-17T01:18:49;8.80;;;5.47;;
33814;SDS011;20121;51.910;8.406;2023-02-17T01:21:18;7.83;;;7.10;;
33814;SDS011;20121;51.910;8.406;2023-02-17T01:23:53;7.55;;;6.85;;
33814;SDS011;20121;51.910;8.406;2023-02-17T01:26:21;11.60;;;7.68;;
33814;SDS011;20121;51.910;8.406;2023-02-17T01:28:48;6.78;;;4.78;;
33814;SDS011;20121;51.910;8.406;2023-02-17T01:31:15;12.05;;;8.30;;
33814;SDS011;20121;51.910;8.406;2023-02-17T01:33:42;6.55;;;5.90;;
33814;SDS011;20121;51.910;8.406;2023-02-17T01:36:09;6.57;;;5.53;;
33814;SDS011;20121;51.910;8.406;2023-02-17T01:38:36;12.00;;;8.93;;
33814;SDS011;20121;51.910;8.406;2023-02-17T01:41:02;15.32;;;6.80;;
33814;SDS011;20121;51.910;8.406;2023-02-17T01:43:29;10.85;;;6.65;;
33814;SDS011;20121;51.910;8.406;2023-02-17T01:45:55;10.20;;;6.50;;
33814;SDS011;20121;51.910;8.406;2023-02-17T01:51:20;13.30;;;6.63;;
33814;SDS011;20121;51.910;8.406;2023-02-17T01:53:54;13.15;;;6.82;;
33814;SDS011;20121;51.910;8.406;2023-02-17T01:56:32;8.55;;;6.22;;
33814;SDS011;20121;51.910;8.406;2023-02-17T01:59:03;10.45;;;6.50;;
33814;SDS011;20121;51.910;8.406;2023-02-17T02:01:41;11.77;;;6.63;;
33814;SDS011;20121;51.910;8.406;2023-02-17T02:04:07;8.80;;;5.90;;
33814;SDS011;20121;51.910;8.406;2023-02-17T02:06:34;10.13;;;6.22;;
33814;SDS011;20121;51.910;8.406;2023-02-17T02:09:06;11.88;;;7.03;;
33814;SDS011;20121;51.910;8.406;2023-02-17T02:11:36;11.77;;;6.15;;
33814;SDS011;20121;51.910;8.406;2023-02-17T02:14:02;11.20;;;7.30;;
33814;SDS011;20121;51.910;8.406;2023-02-17T02:19:05;7.07;;;4.88;;
33814;SDS011;20121;51.910;8.406;2023-02-17T02:22:22;12.18;;;6.32;;
33814;SDS011;20121;51.910;8.406;2023-02-17T02:24:57;7.00;;;4.45;;
33814;SDS011;20121;51.910;8.406;2023-02-17T02:35:16;10.00;;;7.38;;
33814;SDS011;20121;51.910;8.406;2023-02-17T02:40:47;8.38;;;6.25;;
33814;SDS011;20121;51.910;8.406;2023-02-17T02:43:20;10.77;;;6.85;;
33814;SDS011;20121;51.910;8.406;2023-02-17T02:45:47;9.80;;;4.90;;
33814;SDS011;20121;51.910;8.406;2023-02-17T02:48:13;8.73;;;6.03;;
33814;SDS011;20121;51.910;8.406;2023-02-17T02:50:42;7.70;;;5.90;;
33814;SDS011;20121;51.910;8.406;2023-02-17T03:01:25;6.80;;;6.10;;
33814;SDS011;20121;51.910;8.406;2023-02-17T03:04:04;10.07;;;7.50;;
33814;SDS011;20121;51.910;8.406;2023-02-17T03:06:48;8.10;;;5.57;;
33814;SDS011;20121;51.910;8.406;2023-02-17T03:09:27;8.85;;;5.47;;
33814;SDS011;20121;51.910;8.406;2023-02-17T03:11:54;11.80;;;6.93;;
33814;SDS011;20121;51.910;8.406;2023-02-17T03:14:21;7.57;;;5.47;;
33814;SDS011;20121;51.910;8.406;2023-02-17T03:16:47;8.85;;;6.00;;
33814;SDS011;20121;51.910;8.406;2023-02-17T03:19:14;7.00;;;4.88;;
33814;SDS011;20121;51.910;8.406;2023-02-17T03:21:49;9.88;;;6.10;;
33814;SDS011;20121;51.910;8.406;2023-02-17T03:24:35;5.15;;;4.35;;
33814;SDS011;20121;51.910;8.406;2023-02-17T03:27:01;9.60;;;6.17;;
33814;SDS011;20121;51.910;8.406;2023-02-17T03:29:27;6.43;;;4.30;;
33814;SDS011;20121;51.910;8.406;2023-02-17T03:31:52;8.60;;;6.30;;
33814;SDS011;20121;51.910;8.406;2023-02-17T03:34:18;9.53;;;6.20;;
33814;SDS011;20121;51.910;8.406;2023-02-17T03:36:44;9.27;;;7.33;;
33814;SDS011;20121;51.910;8.406;2023-02-17T03:39:09;9.80;;;5.80;;
33814;SDS011;20121;51.910;8.406;2023-02-17T03:41:35;7.20;;;6.17;;
33814;SDS011;20121;51.910;8.406;2023-02-17T03:44:01;8.53;;;3.50;;
33814;SDS011;20121;51.910;8.406;2023-02-17T03:46:26;7.53;;;4.50;;
33814;SDS011;20121;51.910;8.406;2023-02-17T03:48:52;8.53;;;6.13;;
33814;SDS011;20121;51.910;8.406;2023-02-17T03:51:19;8.60;;;5.63;;
33814;SDS011;20121;51.910;8.406;2023-02-17T03:53:45;11.50;;;7.45;;
33814;SDS011;20121;51.910;8.406;2023-02-17T03:56:12;8.27;;;4.47;;
33814;SDS011;20121;51.910;8.406;2023-02-17T03:58:38;8.93;;;5.50;;
33814;SDS011;20121;51.910;8.406;2023-02-17T04:01:05;13.38;;;5.30;;
33814;SDS011;20121;51.910;8.406;2023-02-17T04:03:32;14.90;;;8.05;;
33814;SDS011;20121;51.910;8.406;2023-02-17T04:05:58;8.18;;;5.80;;
33814;SDS011;20121;51.910;8.406;2023-02-17T04:08:24;8.85;;;6.65;;
33814;SDS011;20121;51.910;8.406;2023-02-17T04:10:50;10.50;;;6.23;;
33814;SDS011;20121;51.910;8.406;2023-02-17T04:13:17;12.80;;;7.05;;
33814;SDS011;20121;51.910;8.406;2023-02-17T04:15:42;14.50;;;6.93;;
33814;SDS011;20121;51.910;8.406;2023-02-17T04:18:08;8.27;;;5.60;;
33814;SDS011;20121;51.910;8.406;2023-02-17T04:20:33;11.13;;;7.00;;
33814;SDS011;20121;51.910;8.406;2023-02-17T04:22:59;13.40;;;8.20;;
33814;SDS011;20121;51.910;8.406;2023-02-17T04:25:25;15.20;;;8.10;;
33814;SDS011;20121;51.910;8.406;2023-02-17T04:27:50;15.30;;;7.17;;
33814;SDS011;20121;51.910;8.406;2023-02-17T04:30:16;12.47;;;7.23;;
33814;SDS011;20121;51.910;8.406;2023-02-17T04:32:41;10.70;;;8.10;;
33814;SDS011;20121;51.910;8.406;2023-02-17T04:35:07;11.03;;;6.03;;
33814;SDS011;20121;51.910;8.406;2023-02-17T04:37:33;8.68;;;7.07;;
33814;SDS011;20121;51.910;8.406;2023-02-17T04:39:59;11.17;;;7.77;;
33814;SDS011;20121;51.910;8.406;2023-02-17T04:42:24;8.70;;;5.80;;
33814;SDS011;20121;51.910;8.406;2023-02-17T04:44:50;9.87;;;6.37;;
33814;SDS011;20121;51.910;8.406;2023-02-17T04:47:15;11.37;;;8.00;;
33814;SDS011;20121;51.910;8.406;2023-02-17T04:49:41;11.60;;;6.73;;
33814;SDS011;20121;51.910;8.406;2023-02-17T04:52:07;13.97;;;7.00;;
33814;SDS011;20121;51.910;8.406;2023-02-17T04:54:32;8.90;;;6.77;;
33814;SDS011;20121;51.910;8.406;2023-02-17T04:56:58;11.13;;;6.57;;
33814;SDS011;20121;51.910;8.406;2023-02-17T04:59:23;8.60;;;7.47;;
33814;SDS011;20121;51.910;8.406;2023-02-17T05:01:49;12.60;;;7.60;;
33814;SDS011;20121;51.910;8.406;2023-02-17T05:04:15;9.87;;;6.43;;
33814;SDS011;20121;51.910;8.406;2023-02-17T05:06:40;14.00;;;7.00;;
33814;SDS011;20121;51.910;8.406;2023-02-17T05:09:06;18.53;;;7.40;;
33814;SDS011;20121;51.910;8.406;2023-02-17T05:11:31;11.33;;;8.30;;
33814;SDS011;20121;51.910;8.406;2023-02-17T05:13:57;11.87;;;7.83;;
33814;SDS011;20121;51.910;8.406;2023-02-17T05:16:23;11.30;;;7.30;;
33814;SDS011;20121;51.910;8.406;2023-02-17T05:18:48;10.33;;;8.10;;
33814;SDS011;20121;51.910;8.406;2023-02-17T05:21:14;8.60;;;5.07;;
33814;SDS011;20121;51.910;8.406;2023-02-17T05:23:39;13.90;;;6.53;;
33814;SDS011;20121;51.910;8.406;2023-02-17T05:26:06;10.03;;;7.70;;
33814;SDS011;20121;51.910;8.406;2023-02-17T05:28:33;7.70;;;6.35;;
33814;SDS011;20121;51.910;8.406;2023-02-17T05:31:00;12.68;;;8.30;;
33814;SDS011;20121;51.910;8.406;2023-02-17T05:33:26;8.32;;;5.57;;
33814;SDS011;20121;51.910;8.406;2023-02-17T05:35:52;13.80;;;8.43;;
33814;SDS011;20121;51.910;8.406;2023-02-17T05:38:17;9.27;;;5.90;;
33814;SDS011;20121;51.910;8.406;2023-02-17T05:40:43;8.27;;;6.70;;
33814;SDS011;20121;51.910;8.406;2023-02-17T05:43:09;13.30;;;5.77;;
33814;SDS011;20121;51.910;8.406;2023-02-17T05:45:34;11.67;;;7.70;;
33814;SDS011;20121;51.910;8.406;2023-02-17T05:48:00;26.20;;;8.83;;
33814;SDS011;20121;51.910;8.406;2023-02-17T05:50:25;8.47;;;6.07;;
33814;SDS011;20121;51.910;8.406;2023-02-17T05:52:51;6.70;;;4.70;;
33814;SDS011;20121;51.910;8.406;2023-02-17T05:55:17;7.17;;;5.20;;
33814;SDS011;20121;51.910;8.406;2023-02-17T05:57:42;7.23;;;4.80;;
33814;SDS011;20121;51.910;8.406;2023-02-17T06:00:08;12.10;;;6.53;;
33814;SDS011;20121;51.910;8.406;2023-02-17T06:02:34;5.25;;;4.50;;
33814;SDS011;20121;51.910;8.406;2023-02-17T06:05:00;8.03;;;7.03;;
33814;SDS011;20121;51.910;8.406;2023-02-17T06:07:25;7.50;;;5.77;;
33814;SDS011;20121;51.910;8.406;2023-02-17T06:09:51;9.00;;;5.43;;
33814;SDS011;20121;51.910;8.406;2023-02-17T06:12:16;5.90;;;4.50;;
33814;SDS011;20121;51.910;8.406;2023-02-17T06:14:42;10.50;;;6.73;;
33814;SDS011;20121;51.910;8.406;2023-02-17T06:17:08;6.40;;;5.10;;
33814;SDS011;20121;51.910;8.406;2023-02-17T06:19:34;7.43;;;5.10;;
33814;SDS011;20121;51.910;8.406;2023-02-17T06:22:00;14.77;;;5.83;;
33814;SDS011;20121;51.910;8.406;2023-02-17T06:24:25;10.07;;;5.37;;
33814;SDS011;20121;51.910;8.406;2023-02-17T06:26:51;7.00;;;5.97;;
33814;SDS011;20121;51.910;8.406;2023-02-17T06:29:17;12.97;;;6.60;;
33814;SDS011;20121;51.910;8.406;2023-02-17T06:31:42;7.70;;;4.33;;
33814;SDS011;20121;51.910;8.406;2023-02-17T06:34:08;8.10;;;4.63;;
33814;SDS011;20121;51.910;8.406;2023-02-17T06:36:33;9.17;;;5.93;;
33814;SDS011;20121;51.910;8.406;2023-02-17T06:38:59;10.83;;;5.57;;
33814;SDS011;20121;51.910;8.406;2023-02-17T06:41:25;9.10;;;5.43;;
33814;SDS011;20121;51.910;8.406;2023-02-17T06:43:50;10.20;;;5.20;;
33814;SDS011;20121;51.910;8.406;2023-02-17T06:46:16;11.63;;;5.30;;
33814;SDS011;20121;51.910;8.406;2023-02-17T06:48:41;8.07;;;4.20;;
33814;SDS011;20121;51.910;8.406;2023-02-17T06:51:07;6.20;;;5.60;;
33814;SDS011;20121;51.910;8.406;2023-02-17T06:53:32;5.63;;;4.93;;
33814;SDS011;20121;51.910;8.406;2023-02-17T06:55:58;6.10;;;3.53;;
33814;SDS011;20121;51.910;8.406;2023-02-17T06:58:24;8.17;;;4.33;;
33814;SDS011;20121;51.910;8.406;2023-02-17T07:00:50;8.10;;;4.30;;
33814;SDS011;20121;51.910;8.406;2023-02-17T07:03:16;5.27;;;4.17;;
33814;SDS011;20121;51.910;8.406;2023-02-17T07:05:41;8.17;;;5.30;;
33814;SDS011;20121;51.910;8.406;2023-02-17T07:08:07;10.00;;;4.20;;
33814;SDS011;20121;51.910;8.406;2023-02-17T07:10:33;5.23;;;3.67;;
33814;SDS011;20121;51.910;8.406;2023-02-17T07:12:58;4.83;;;4.30;;
33814;SDS011;20121;51.910;8.406;2023-02-17T07:15:24;3.53;;;3.20;;
33814;SDS011;20121;51.910;8.406;2023-02-17T07:17:50;9.93;;;5.90;;
33814;SDS011;20121;51.910;8.406;2023-02-17T07:20:15;7.47;;;4.17;;
33814;SDS011;20121;51.910;8.406;2023-02-17T07:22:41;4.10;;;3.57;;
33814;SDS011;20121;51.910;8.406;2023-02-17T07:25:07;4.63;;;4.10;;
33814;SDS011;20121;51.910;8.406;2023-02-17T07:27:34;6.63;;;4.40;;
33814;SDS011;20121;51.910;8.406;2023-02-17T07:30:00;4.30;;;3.78;;
33814;SDS011;20121;51.910;8.406;2023-02-17T07:32:26;8.10;;;5.37;;
33814;SDS011;20121;51.910;8.406;2023-02-17T07:34:51;5.80;;;3.43;;
33814;SDS011;20121;51.910;8.406;2023-02-17T07:37:17;4.10;;;3.30;;
33814;SDS011;20121;51.910;8.406;2023-02-17T07:39:45;6.70;;;5.50;;
33814;SDS011;20121;51.910;8.406;2023-02-17T07:42:12;7.50;;;4.93;;
33814;SDS011;20121;51.910;8.406;2023-02-17T07:44:38;9.13;;;5.57;;
33814;SDS011;20121;51.910;8.406;2023-02-17T07:47:03;7.13;;;4.10;;
33814;SDS011;20121;51.910;8.406;2023-02-17T07:49:29;7.17;;;5.40;;
33814;SDS011;20121;51.910;8.406;2023-02-17T07:51:55;9.97;;;4.50;;
33814;SDS011;20121;51.910;8.406;2023-02-17T07:54:20;7.83;;;5.60;;
33814;SDS011;20121;51.910;8.406;2023-02-17T07:56:46;4.60;;;3.60;;
33814;SDS011;20121;51.910;8.406;2023-02-17T07:59:12;7.80;;;4.30;;
33814;SDS011;20121;51.910;8.406;2023-02-17T08:01:38;6.35;;;4.15;;
33814;SDS011;20121;51.910;8.406;2023-02-17T08:04:04;4.60;;;3.73;;
33814;SDS011;20121;51.910;8.406;2023-02-17T08:06:30;6.17;;;3.70;;
33814;SDS011;20121;51.910;8.406;2023-02-17T08:08:56;4.03;;;3.47;;
33814;SDS011;20121;51.910;8.406;2023-02-17T08:11:41;6.45;;;4.05;;
33814;SDS011;20121;51.910;8.406;2023-02-17T08:14:26;5.88;;;3.85;;
33814;SDS011;20121;51.910;8.406;2023-02-17T08:16:53;9.50;;;4.40;;
33814;SDS011;20121;51.910;8.406;2023-02-17T08:19:19;4.15;;;3.65;;
33814;SDS011;20121;51.910;8.406;2023-02-17T08:21:46;6.57;;;4.25;;
33814;SDS011;20121;51.910;8.406;2023-02-17T08:24:12;5.22;;;4.28;;
33814;SDS011;20121;51.910;8.406;2023-02-17T08:26:38;9.80;;;4.33;;
33814;SDS011;20121;51.910;8.406;2023-02-17T08:29:03;7.15;;;3.65;;
33814;SDS011;20121;51.910;8.406;2023-02-17T08:31:31;6.43;;;4.77;;
33814;SDS011;20121;51.910;8.406;2023-02-17T08:34:02;6.20;;;4.72;;
33814;SDS011;20121;51.910;8.406;2023-02-17T08:36:29;4.88;;;4.10;;
33814;SDS011;20121;51.910;8.406;2023-02-17T08:38:55;4.53;;;4.18;;
33814;SDS011;20121;51.910;8.406;2023-02-17T08:43:55;8.35;;;5.05;;
33814;SDS011;20121;51.910;8.406;2023-02-17T08:46:22;7.90;;;4.20;;
33814;SDS011;20121;51.910;8.406;2023-02-17T08:48:48;7.85;;;4.45;;
33814;SDS011;20121;51.910;8.406;2023-02-17T08:51:15;6.60;;;3.40;;
33814;SDS011;20121;51.910;8.406;2023-02-17T08:53:42;7.93;;;5.20;;
33814;SDS011;20121;51.910;8.406;2023-02-17T08:56:10;5.80;;;3.72;;
33814;SDS011;20121;51.910;8.406;2023-02-17T08:58:35;4.90;;;4.45;;
33814;SDS011;20121;51.910;8.406;2023-02-17T09:01:01;8.37;;;5.90;;
33814;SDS011;20121;51.910;8.406;2023-02-17T09:03:27;7.78;;;5.20;;
33814;SDS011;20121;51.910;8.406;2023-02-17T09:05:54;8.32;;;4.22;;
33814;SDS011;20121;51.910;8.406;2023-02-17T09:08:21;7.43;;;4.15;;
33814;SDS011;20121;51.910;8.406;2023-02-17T09:10:47;7.95;;;4.43;;
33814;SDS011;20121;51.910;8.406;2023-02-17T09:13:13;7.82;;;6.13;;
33814;SDS011;20121;51.910;8.406;2023-02-17T09:15:39;6.90;;;5.97;;
33814;SDS011;20121;51.910;8.406;2023-02-17T09:18:05;8.70;;;5.13;;
33814;SDS011;20121;51.910;8.406;2023-02-17T09:20:30;8.60;;;6.13;;
33814;SDS011;20121;51.910;8.406;2023-02-17T09:22:57;6.78;;;4.82;;
33814;SDS011;20121;51.910;8.406;2023-02-17T09:25:22;8.53;;;5.60;;
33814;SDS011;20121;51.910;8.406;2023-02-17T09:27:48;7.67;;;5.67;;
33814;SDS011;20121;51.910;8.406;2023-02-17T09:30:14;7.30;;;4.60;;
33814;SDS011;20121;51.910;8.406;2023-02-17T09:32:40;5.90;;;3.63;;
33814;SDS011;20121;51.910;8.406;2023-02-17T09:35:07;9.18;;;4.60;;
33814;SDS011;20121;51.910;8.406;2023-02-17T09:37:35;10.43;;;6.18;;
33814;SDS011;20121;51.910;8.406;2023-02-17T09:40:01;8.07;;;4.77;;
33814;SDS011;20121;51.910;8.406;2023-02-17T09:42:26;7.90;;;5.17;;
33814;SDS011;20121;51.910;8.406;2023-02-17T09:44:54;8.68;;;4.90;;
33814;SDS011;20121;51.910;8.406;2023-02-17T09:47:52;7.93;;;5.13;;
33814;SDS011;20121;51.910;8.406;2023-02-17T09:50:35;5.85;;;4.85;;
33814;SDS011;20121;51.910;8.406;2023-02-17T09:53:47;6.85;;;5.68;;
33814;SDS011;20121;51.910;8.406;2023-02-17T09:56:07;13.93;;;6.38;;
33814;SDS011;20121;51.910;8.406;2023-02-17T09:58:37;12.63;;;7.05;;
33814;SDS011;20121;51.910;8.406;2023-02-17T10:01:08;10.60;;;5.97;;
33814;SDS011;20121;51.910;8.406;2023-02-17T10:03:40;8.98;;;5.70;;
33814;SDS011;20121;51.910;8.406;2023-02-17T10:06:14;7.78;;;5.38;;
33814;SDS011;20121;51.910;8.406;2023-02-17T10:09:02;11.05;;;6.60;;
33814;SDS011;20121;51.910;8.406;2023-02-17T10:14:45;6.32;;;4.85;;
33814;SDS011;20121;51.910;8.406;2023-02-17T10:17:33;11.13;;;5.50;;
33814;SDS011;20121;51.910;8.406;2023-02-17T10:22:41;8.57;;;4.90;;
33814;SDS011;20121;51.910;8.406;2023-02-17T10:25:17;8.18;;;5.97;;
33814;SDS011;20121;51.910;8.406;2023-02-17T10:27:57;6.60;;;5.80;;
33814;SDS011;20121;51.910;8.406;2023-02-17T10:30:58;6.70;;;5.18;;
33814;SDS011;20121;51.910;8.406;2023-02-17T10:33:28;11.63;;;6.10;;
33814;SDS011;20121;51.910;8.406;2023-02-17T10:38:49;6.40;;;5.03;;
33814;SDS011;20121;51.910;8.406;2023-02-17T10:41:34;14.00;;;6.40;;
33814;SDS011;20121;51.910;8.406;2023-02-17T10:44:04;10.18;;;7.30;;
33814;SDS011;20121;51.910;8.406;2023-02-17T10:46:33;8.85;;;5.60;;
33814;SDS011;20121;51.910;8.406;2023-02-17T10:48:59;9.33;;;5.97;;
33814;SDS011;20121;51.910;8.406;2023-02-17T10:51:26;8.55;;;5.50;;
33814;SDS011;20121;51.910;8.406;2023-02-17T10:53:56;7.72;;;5.75;;
33814;SDS011;20121;51.910;8.406;2023-02-17T10:56:27;10.70;;;6.07;;
33814;SDS011;20121;51.910;8.406;2023-02-17T11:01:47;9.02;;;5.25;;
33814;SDS011;20121;51.910;8.406;2023-02-17T11:04:13;7.43;;;5.17;;
33814;SDS011;20121;51.910;8.406;2023-02-17T11:06:49;8.97;;;5.53;;
33814;SDS011;20121;51.910;8.406;2023-02-17T11:09:23;9.70;;;6.03;;
33814;SDS011;20121;51.910;8.406;2023-02-17T11:12:02;10.40;;;5.78;;
33814;SDS011;20121;51.910;8.406;2023-02-17T11:14:35;16.80;;;7.57;;
33814;SDS011;20121;51.910;8.406;2023-02-17T11:17:02;8.95;;;5.47;;
33814;SDS011;20121;51.910;8.406;2023-02-17T11:22:44;6.68;;;5.15;;
33814;SDS011;20121;51.910;8.406;2023-02-17T11:27:58;7.25;;;5.00;;
33814;SDS011;20121;51.910;8.406;2023-02-17T11:30:26;5.50;;;4.93;;
33814;SDS011;20121;51.910;8.406;2023-02-17T11:32:53;9.65;;;5.88;;
33814;SDS011;20121;51.910;8.406;2023-02-17T11:38:14;7.15;;;5.38;;
33814;SDS011;20121;51.910;8.406;2023-02-17T11:40:52;5.60;;;4.90;;
33814;SDS011;20121;51.910;8.406;2023-02-17T11:43:24;9.63;;;5.63;;
33814;SDS011;20121;51.910;8.406;2023-02-17T11:51:21;11.70;;;6.78;;
33814;SDS011;20121;51.910;8.406;2023-02-17T11:56:32;5.85;;;4.50;;
33814;SDS011;20121;51.910;8.406;2023-02-17T12:02:03;6.47;;;5.05;;
33814;SDS011;20121;51.910;8.406;2023-02-17T12:07:30;7.50;;;5.15;;
33814;SDS011;20121;51.910;8.406;2023-02-17T12:21:11;8.23;;;6.03;;
33814;SDS011;20121;51.910;8.406;2023-02-17T12:23:51;5.75;;;5.18;;
33814;SDS011;20121;51.910;8.406;2023-02-17T12:26:43;5.10;;;4.53;;
33814;SDS011;20121;51.910;8.406;2023-02-17T12:29:21;7.15;;;5.30;;
33814;SDS011;20121;51.910;8.406;2023-02-17T12:32:51;6.55;;;4.75;;
33814;SDS011;20121;51.910;8.406;2023-02-17T12:38:10;6.82;;;4.55;;
33814;SDS011;20121;51.910;8.406;2023-02-17T12:40:38;12.80;;;6.15;;
33814;SDS011;20121;51.910;8.406;2023-02-17T12:43:23;4.60;;;4.15;;
33814;SDS011;20121;51.910;8.406;2023-02-17T12:46:05;6.20;;;4.93;;
33814;SDS011;20121;51.910;8.406;2023-02-17T12:48:39;6.25;;;4.53;;
33814;SDS011;20121;51.910;8.406;2023-02-17T12:51:18;4.85;;;4.40;;
33814;SDS011;20121;51.910;8.406;2023-02-17T12:59:20;4.95;;;3.80;;
33814;SDS011;20121;51.910;8.406;2023-02-17T13:01:56;6.20;;;4.80;;
33814;SDS011;20121;51.910;8.406;2023-02-17T13:04:30;5.85;;;3.75;;
33814;SDS011;20121;51.910;8.406;2023-02-17T13:09:36;9.82;;;5.60;;
33814;SDS011;20121;51.910;8.406;2023-02-17T13:12:06;5.68;;;4.18;;
33814;SDS011;20121;51.910;8.406;2023-02-17T13:14:45;3.80;;;3.42;;
33814;SDS011;20121;51.910;8.406;2023-02-17T13:17:29;5.43;;;3.50;;
33814;SDS011;20121;51.910;8.406;2023-02-17T13:22:40;4.07;;;2.75;;
33814;SDS011;20121;51.910;8.406;2023-02-17T13:25:10;3.60;;;2.72;;
33814;SDS011;20121;51.910;8.406;2023-02-17T13:27:39;2.70;;;2.30;;
33814;SDS011;20121;51.910;8.406;2023-02-17T13:32:46;2.17;;;1.88;;
33814;SDS011;20121;51.910;8.406;2023-02-17T13:37:42;5.57;;;3.00;;
33814;SDS011;20121;51.910;8.406;2023-02-17T13:42:44;3.78;;;2.58;;
33814;SDS011;20121;51.910;8.406;2023-02-17T13:45:16;2.63;;;2.42;;
33814;SDS011;20121;51.910;8.406;2023-02-17T13:47:48;4.05;;;3.05;;
33814;SDS011;20121;51.910;8.406;2023-02-17T13:52:56;4.90;;;2.58;;
33814;SDS011;20121;51.910;8.406;2023-02-17T13:55:22;4.70;;;2.30;;
33814;SDS011;20121;51.910;8.406;2023-02-17T13:57:52;2.75;;;2.10;;
33814;SDS011;20121;51.910;8.406;2023-02-17T14:02:52;2.38;;;2.15;;
33814;SDS011;20121;51.910;8.406;2023-02-17T14:05:27;3.10;;;2.50;;
33814;SDS011;20121;51.910;8.406;2023-02-17T14:10:43;2.50;;;2.13;;
33814;SDS011;20121;51.910;8.406;2023-02-17T14:13:10;5.00;;;2.50;;
33814;SDS011;20121;51.910;8.406;2023-02-17T14:15:36;4.32;;;3.03;;
33814;SDS011;20121;51.910;8.406;2023-02-17T14:18:14;2.03;;;1.75;;
33814;SDS011;20121;51.910;8.406;2023-02-17T14:20:49;4.90;;;2.47;;
33814;SDS011;20121;51.910;8.406;2023-02-17T14:23:54;1.98;;;1.88;;
33814;SDS011;20121;51.910;8.406;2023-02-17T14:28:55;2.42;;;2.05;;
33814;SDS011;20121;51.910;8.406;2023-02-17T14:31:25;3.25;;;2.70;;
33814;SDS011;20121;51.910;8.406;2023-02-17T14:33:53;2.53;;;2.03;;
33814;SDS011;20121;51.910;8.406;2023-02-17T14:36:36;2.80;;;1.50;;
33814;SDS011;20121;51.910;8.406;2023-02-17T14:39:07;3.03;;;2.25;;
33814;SDS011;20121;51.910;8.406;2023-02-17T14:41:39;3.20;;;2.65;;
33814;SDS011;20121;51.910;8.406;2023-02-17T14:44:04;3.50;;;2.13;;
33814;SDS011;20121;51.910;8.406;2023-02-17T14:46:30;2.80;;;2.37;;
33814;SDS011;20121;51.910;8.406;2023-02-17T14:48:57;4.38;;;2.20;;
33814;SDS011;20121;51.910;8.406;2023-02-17T14:51:23;3.53;;;2.08;;
33814;SDS011;20121;51.910;8.406;2023-02-17T14:53:50;3.80;;;3.05;;
33814;SDS011;20121;51.910;8.406;2023-02-17T14:56:18;2.22;;;2.00;;
33814;SDS011;20121;51.910;8.406;2023-02-17T14:58:59;6.07;;;2.40;;
33814;SDS011;20121;51.910;8.406;2023-02-17T15:01:24;2.30;;;2.10;;
33814;SDS011;20121;51.910;8.406;2023-02-17T15:03:51;2.40;;;1.63;;
33814;SDS011;20121;51.910;8.406;2023-02-17T15:06:29;4.60;;;3.20;;
33814;SDS011;20121;51.910;8.406;2023-02-17T15:09:03;2.30;;;2.10;;
33814;SDS011;20121;51.910;8.406;2023-02-17T15:11:31;2.58;;;2.30;;
33814;SDS011;20121;51.910;8.406;2023-02-17T15:13:59;3.13;;;1.90;;
33814;SDS011;20121;51.910;8.406;2023-02-17T15:16:26;5.28;;;2.67;;
33814;SDS011;20121;51.910;8.406;2023-02-17T15:18:52;3.00;;;2.30;;
33814;SDS011;20121;51.910;8.406;2023-02-17T15:21:25;2.67;;;2.43;;
33814;SDS011;20121;51.910;8.406;2023-02-17T15:23:53;3.15;;;2.13;;
33814;SDS011;20121;51.910;8.406;2023-02-17T15:26:20;3.40;;;3.10;;
33814;SDS011;20121;51.910;8.406;2023-02-17T15:28:46;4.18;;;2.75;;
33814;SDS011;20121;51.910;8.406;2023-02-17T15:31:12;4.13;;;2.35;;
33814;SDS011;20121;51.910;8.406;2023-02-17T15:33:40;7.43;;;4.30;;
33814;SDS011;20121;51.910;8.406;2023-02-17T15:36:12;3.47;;;2.40;;
33814;SDS011;20121;51.910;8.406;2023-02-17T15:38:40;4.50;;;2.72;;
33814;SDS011;20121;51.910;8.406;2023-02-17T15:41:10;3.35;;;2.30;;
33814;SDS011;20121;51.910;8.406;2023-02-17T15:43:39;3.50;;;1.92;;
33814;SDS011;20121;51.910;8.406;2023-02-17T15:46:09;4.30;;;2.27;;
33814;SDS011;20121;51.910;8.406;2023-02-17T15:48:37;2.90;;;2.60;;
33814;SDS011;20121;51.910;8.406;2023-02-17T15:51:04;7.65;;;3.03;;
33814;SDS011;20121;51.910;8.406;2023-02-17T15:53:29;2.73;;;2.53;;
33814;SDS011;20121;51.910;8.406;2023-02-17T15:55:57;4.07;;;2.80;;
33814;SDS011;20121;51.910;8.406;2023-02-17T15:58:25;2.63;;;2.40;;
33814;SDS011;20121;51.910;8.406;2023-02-17T16:00:52;7.85;;;2.38;;
33814;SDS011;20121;51.910;8.406;2023-02-17T16:03:19;3.10;;;2.78;;
33814;SDS011;20121;51.910;8.406;2023-02-17T16:05:45;2.63;;;2.17;;
33814;SDS011;20121;51.910;8.406;2023-02-17T16:08:11;5.47;;;2.20;;
33814;SDS011;20121;51.910;8.406;2023-02-17T16:10:37;4.17;;;2.00;;
33814;SDS011;20121;51.910;8.406;2023-02-17T16:13:06;3.97;;;2.00;;
33814;SDS011;20121;51.910;8.406;2023-02-17T16:15:35;2.80;;;2.58;;
33814;SDS011;20121;51.910;8.406;2023-02-17T16:18:01;3.47;;;2.67;;
33814;SDS011;20121;51.910;8.406;2023-02-17T16:20:28;3.90;;;2.67;;
33814;SDS011;20121;51.910;8.406;2023-02-17T16:22:58;2.38;;;1.90;;
33814;SDS011;20121;51.910;8.406;2023-02-17T16:25:25;1.98;;;1.88;;
33814;SDS011;20121;51.910;8.406;2023-02-17T16:27:52;2.75;;;2.45;;
33814;SDS011;20121;51.910;8.406;2023-02-17T16:30:39;8.17;;;2.83;;
33814;SDS011;20121;51.910;8.406;2023-02-17T16:33:04;2.90;;;2.63;;
33814;SDS011;20121;51.910;8.406;2023-02-17T16:35:31;3.92;;;3.08;;
33814;SDS011;20121;51.910;8.406;2023-02-17T16:40:53;3.65;;;2.90;;
33814;SDS011;20121;51.910;8.406;2023-02-17T16:43:20;2.20;;;1.83;;